createdAt,value
2023-11-16T00:00:18.017Z,2.00
2023-11-16T00:02:45.253Z,1.90
2023-11-16T00:05:14.885Z,2.10
2023-11-16T00:07:49.405Z,1.80
2023-11-16T00:10:17.882Z,1.60
2023-11-16T00:12:44.860Z,1.60
2023-11-16T00:15:13.296Z,1.90
2023-11-16T00:17:40.533Z,1.80
2023-11-16T00:20:08.850Z,1.80
2023-11-16T00:22:35.617Z,1.90
2023-11-16T00:25:07.435Z,2.20
2023-11-16T00:27:35.379Z,1.40
2023-11-16T00:30:05.020Z,1.70
2023-11-16T00:32:33.650Z,1.40
2023-11-16T00:35:01.280Z,1.90
2023-11-16T00:37:28.393Z,1.60
2023-11-16T00:39:59.352Z,1.60
2023-11-16T00:42:26.271Z,1.20
2023-11-16T00:44:53.757Z,1.40
2023-11-16T00:47:20.774Z,1.70
2023-11-16T00:49:47.967Z,1.30
2023-11-16T00:52:15.555Z,1.60
2023-11-16T00:54:42.542Z,1.70
2023-11-16T00:57:10.727Z,1.30
2023-11-16T00:59:38.188Z,1.80
2023-11-16T01:02:06.338Z,1.70
2023-11-16T01:04:35.329Z,1.50
2023-11-16T01:07:02.068Z,1.40
2023-11-16T01:09:37.011Z,1.40
2023-11-16T01:12:05.296Z,1.50
2023-11-16T01:14:32.186Z,1.30
2023-11-16T01:17:05.018Z,1.70
2023-11-16T01:19:33.646Z,1.40
2023-11-16T01:22:02.010Z,0.90
2023-11-16T01:24:36.348Z,1.10
2023-11-16T01:27:16.761Z,1.20
2023-11-16T01:29:45.438Z,1.50
2023-11-16T01:32:13.842Z,1.20
2023-11-16T01:34:43.698Z,1.10
2023-11-16T01:37:11.392Z,1.20
2023-11-16T01:39:42.218Z,1.10
2023-11-16T01:42:11.213Z,1.40
2023-11-16T01:44:40.252Z,1.30
2023-11-16T01:47:10.365Z,1.40
2023-11-16T01:49:39.350Z,1.50
2023-11-16T01:52:07.342Z,1.60
2023-11-16T01:54:38.308Z,1.20
2023-11-16T01:57:05.943Z,1.50
2023-11-16T01:59:35.710Z,1.30
2023-11-16T02:02:05.708Z,1.50
2023-11-16T02:04:36.261Z,1.30
2023-11-16T02:07:05.212Z,1.30
2023-11-16T02:09:32.159Z,1.10
2023-11-16T02:11:58.901Z,1.40
2023-11-16T02:14:25.592Z,1.10
2023-11-16T02:16:54.265Z,1.60
2023-11-16T02:19:32.072Z,1.20
2023-11-16T02:22:00.657Z,1.40
2023-11-16T02:24:28.890Z,1.10
2023-11-16T02:26:56.185Z,1.30
2023-11-16T02:29:23.131Z,1.10
2023-11-16T02:31:49.882Z,1.00
2023-11-16T02:34:16.787Z,1.10
2023-11-16T02:36:43.833Z,1.70
2023-11-16T02:39:14.789Z,1.70
2023-11-16T02:41:42.568Z,2.50
2023-11-16T02:44:10.343Z,2.60
2023-11-16T02:46:37.175Z,3.50
2023-11-16T02:49:04.127Z,2.70
2023-11-16T02:51:32.812Z,3.10
2023-11-16T02:54:03.753Z,3.40
2023-11-16T02:56:30.916Z,3.60
2023-11-16T02:58:57.665Z,3.70
2023-11-16T03:01:25.031Z,4.20
2023-11-16T03:03:52.022Z,4.10
2023-11-16T03:06:19.019Z,3.80
2023-11-16T03:08:46.510Z,4.80
2023-11-16T03:11:15.190Z,4.60
2023-11-16T03:13:42.610Z,4.80
2023-11-16T03:16:10.137Z,4.70
2023-11-16T03:18:37.065Z,5.00
2023-11-16T03:21:04.231Z,5.10
2023-11-16T03:23:30.948Z,5.10
2023-11-16T03:25:58.618Z,5.50
2023-11-16T03:28:25.490Z,5.60
2023-11-16T03:30:52.301Z,5.70
2023-11-16T03:33:19.404Z,5.20
2023-11-16T03:35:50.437Z,5.20
2023-11-16T03:38:20.446Z,5.30
2023-11-16T03:40:47.580Z,5.20
2023-11-16T03:43:15.216Z,4.80
2023-11-16T03:45:42.282Z,5.20
2023-11-16T03:48:10.617Z,4.90
2023-11-16T03:50:37.716Z,5.40
2023-11-16T03:53:04.686Z,4.70
2023-11-16T03:55:31.604Z,4.80
2023-11-16T03:57:58.353Z,4.50
2023-11-16T04:00:27.219Z,4.50
2023-11-16T04:02:59.528Z,4.10
2023-11-16T04:05:31.819Z,4.50
2023-11-16T04:07:58.606Z,4.70
2023-11-16T04:10:26.185Z,3.90
2023-11-16T04:12:53.019Z,3.50
2023-11-16T04:15:20.011Z,4.30
2023-11-16T04:17:47.423Z,4.50
2023-11-16T04:20:15.791Z,4.30
2023-11-16T04:22:42.612Z,4.70
2023-11-16T04:25:20.545Z,4.50
2023-11-16T04:27:50.565Z,4.60
2023-11-16T04:30:19.636Z,4.80
2023-11-16T04:32:47.554Z,4.50
2023-11-16T04:35:16.556Z,4.90
2023-11-16T04:37:43.947Z,4.50
2023-11-16T04:40:11.866Z,4.60
2023-11-16T04:42:40.777Z,4.20
2023-11-16T04:45:08.578Z,4.30
2023-11-16T04:47:38.883Z,4.80
2023-11-16T04:50:07.828Z,4.10
2023-11-16T04:52:35.392Z,4.00
2023-11-16T04:55:02.303Z,4.40
2023-11-16T04:57:29.785Z,4.30
2023-11-16T04:59:57.353Z,4.00
2023-11-16T05:02:24.153Z,4.40
2023-11-16T05:04:52.592Z,4.30
2023-11-16T05:07:19.291Z,4.30
2023-11-16T05:09:47.200Z,3.80
2023-11-16T05:12:14.105Z,3.50
2023-11-16T05:14:40.844Z,3.80
2023-11-16T05:17:07.714Z,3.90
2023-11-16T05:19:34.865Z,3.00
2023-11-16T05:22:03.217Z,3.50
2023-11-16T05:24:30.932Z,3.10
2023-11-16T05:27:03.150Z,3.00
2023-11-16T05:29:31.229Z,3.20
2023-11-16T05:31:58.777Z,2.60
2023-11-16T05:34:29.136Z,2.50
2023-11-16T05:36:56.538Z,2.90
2023-11-16T05:39:24.735Z,3.50
2023-11-16T05:41:51.626Z,2.90
2023-11-16T05:44:20.006Z,3.10
2023-11-16T05:46:46.859Z,3.10
2023-11-16T05:49:16.275Z,2.80
2023-11-16T05:51:43.488Z,2.80
2023-11-16T05:54:11.540Z,2.80
2023-11-16T05:56:44.804Z,2.80
2023-11-16T05:59:12.170Z,2.90
2023-11-16T06:01:39.344Z,3.20
2023-11-16T06:04:08.168Z,3.00
2023-11-16T06:06:35.544Z,3.10
2023-11-16T06:09:07.047Z,2.90
2023-11-16T06:11:34.041Z,3.10
2023-11-16T06:14:01.614Z,3.00
2023-11-16T06:16:28.500Z,2.90
2023-11-16T06:18:55.427Z,2.80
2023-11-16T06:21:22.588Z,2.80
2023-11-16T06:23:49.434Z,3.10
2023-11-16T06:26:16.213Z,3.40
2023-11-16T06:28:43.130Z,3.10
2023-11-16T06:31:09.917Z,3.10
2023-11-16T06:33:36.744Z,4.20
2023-11-16T06:36:04.531Z,4.00
2023-11-16T06:38:31.702Z,6.20
2023-11-16T06:41:00.413Z,5.40
2023-11-16T06:43:27.728Z,3.90
2023-11-16T06:45:59.970Z,3.20
2023-11-16T06:48:28.429Z,3.20
2023-11-16T06:50:55.985Z,3.20
2023-11-16T06:53:26.485Z,3.00
2023-11-16T06:55:53.913Z,2.80
2023-11-16T06:58:24.112Z,3.30
2023-11-16T07:00:52.953Z,2.50
2023-11-16T07:03:20.930Z,2.80
2023-11-16T07:05:47.819Z,2.70
2023-11-16T07:08:15.990Z,2.80
2023-11-16T07:10:43.215Z,3.20
2023-11-16T07:13:16.046Z,3.00
2023-11-16T07:15:46.674Z,3.20
2023-11-16T07:18:14.410Z,3.40
2023-11-16T07:20:42.150Z,3.10
2023-11-16T07:23:10.261Z,2.90
2023-11-16T07:25:36.972Z,2.90
2023-11-16T07:28:05.804Z,3.00
2023-11-16T07:30:34.838Z,3.50
2023-11-16T07:33:04.745Z,2.80
2023-11-16T07:35:35.383Z,2.70
2023-11-16T07:38:03.486Z,5.00
2023-11-16T07:40:30.638Z,3.70
2023-11-16T07:42:58.442Z,4.70
2023-11-16T07:45:26.233Z,4.10
2023-11-16T07:47:53.622Z,4.70
2023-11-16T07:50:20.791Z,4.00
2023-11-16T07:52:49.086Z,4.10
2023-11-16T07:55:23.761Z,4.00
2023-11-16T07:57:51.908Z,3.70
2023-11-16T08:00:32.977Z,4.30
2023-11-16T08:03:19.540Z,4.60
2023-11-16T08:05:48.540Z,3.60
2023-11-16T08:08:16.581Z,3.30
2023-11-16T08:10:45.296Z,4.00
2023-11-16T08:13:13.467Z,3.30
2023-11-16T08:15:42.504Z,3.70
2023-11-16T08:18:11.187Z,3.30
2023-11-16T08:20:39.266Z,3.40
2023-11-16T08:23:07.074Z,3.30
2023-11-16T08:25:35.568Z,4.00
2023-11-16T08:28:03.056Z,3.80
2023-11-16T08:30:29.985Z,4.20
2023-11-16T08:32:56.772Z,3.50
2023-11-16T08:35:24.806Z,3.60
2023-11-16T08:37:55.389Z,2.90
2023-11-16T08:40:25.493Z,4.20
2023-11-16T08:42:53.311Z,3.20
2023-11-16T08:45:26.058Z,3.00
2023-11-16T08:47:54.448Z,3.50
2023-11-16T08:50:22.412Z,3.10
2023-11-16T08:52:50.436Z,3.90
2023-11-16T08:55:20.384Z,3.50
2023-11-16T08:57:49.009Z,3.60
2023-11-16T09:00:29.240Z,3.40
2023-11-16T09:03:01.133Z,3.70
2023-11-16T09:05:33.216Z,3.40
2023-11-16T09:08:02.601Z,3.90
2023-11-16T09:10:31.791Z,3.50
2023-11-16T09:13:00.374Z,3.30
2023-11-16T09:15:27.803Z,3.70
2023-11-16T09:17:56.248Z,4.10
2023-11-16T09:20:26.488Z,3.60
2023-11-16T09:22:56.544Z,4.30
2023-11-16T09:25:25.465Z,3.40
2023-11-16T09:27:56.158Z,4.40
2023-11-16T09:30:24.984Z,4.50
2023-11-16T09:32:54.139Z,4.30
2023-11-16T09:35:24.469Z,4.00
2023-11-16T09:37:53.511Z,3.60
2023-11-16T09:40:32.066Z,4.50
2023-11-16T09:45:30.806Z,4.40
2023-11-16T09:48:01.145Z,4.40
2023-11-16T09:50:29.305Z,4.60
2023-11-16T09:52:58.046Z,4.50
2023-11-16T09:55:27.701Z,5.50
2023-11-16T09:57:57.090Z,5.60
2023-11-16T10:00:25.002Z,4.50
2023-11-16T10:02:57.421Z,5.10
2023-11-16T10:05:28.128Z,5.30
2023-11-16T10:07:58.099Z,5.10
2023-11-16T10:10:30.947Z,5.20
2023-11-16T10:12:58.065Z,4.50
2023-11-16T10:15:26.204Z,4.90
2023-11-16T10:17:53.686Z,4.80
2023-11-16T10:20:22.109Z,5.70
2023-11-16T10:22:49.813Z,5.40
2023-11-16T10:25:17.289Z,5.90
2023-11-16T10:27:45.304Z,5.60
2023-11-16T10:30:16.698Z,5.00
2023-11-16T10:32:48.738Z,6.80
2023-11-16T10:35:19.389Z,6.30
2023-11-16T10:37:46.561Z,6.20
2023-11-16T10:40:14.060Z,5.90
2023-11-16T10:42:42.875Z,7.50
2023-11-16T10:45:10.885Z,7.10
2023-11-16T10:47:38.550Z,8.00
2023-11-16T10:50:06.016Z,6.90
2023-11-16T10:52:34.474Z,7.80
2023-11-16T10:55:08.843Z,5.60
2023-11-16T10:57:38.110Z,8.10
2023-11-16T11:00:06.062Z,7.30
2023-11-16T11:02:35.322Z,8.50
2023-11-16T11:05:11.172Z,6.70
2023-11-16T11:07:54.529Z,5.30
2023-11-16T11:10:34.689Z,6.10
2023-11-16T11:13:04.401Z,6.50
2023-11-16T11:15:32.844Z,6.40
2023-11-16T11:18:03.361Z,6.20
2023-11-16T11:20:33.924Z,5.40
2023-11-16T11:23:08.558Z,6.20
2023-11-16T11:25:40.110Z,5.70
2023-11-16T11:28:08.172Z,5.90
2023-11-16T11:30:38.846Z,6.00
2023-11-16T11:33:15.650Z,6.60
2023-11-16T11:35:54.742Z,6.90
2023-11-16T11:38:28.817Z,6.20
2023-11-16T11:41:23.502Z,6.90
2023-11-16T11:43:50.262Z,6.60
2023-11-16T11:46:19.781Z,7.00
2023-11-16T11:48:48.111Z,6.30
2023-11-16T11:51:17.475Z,6.30
2023-11-16T11:53:49.477Z,6.60
2023-11-16T11:56:17.082Z,6.90
2023-11-16T11:58:44.322Z,6.70
2023-11-16T12:01:12.778Z,6.30
2023-11-16T12:03:51.440Z,7.10
2023-11-16T12:06:19.091Z,5.70
2023-11-16T12:08:47.794Z,7.40
2023-11-16T12:11:19.603Z,6.20
2023-11-16T12:13:46.906Z,5.80
2023-11-16T12:16:14.856Z,5.80
2023-11-16T12:18:49.360Z,6.50
2023-11-16T12:21:16.562Z,7.10
2023-11-16T12:23:51.158Z,6.30
2023-11-16T12:26:29.626Z,7.00
2023-11-16T12:31:28.132Z,6.50
2023-11-16T12:33:58.236Z,6.30
2023-11-16T12:36:27.290Z,6.70
2023-11-16T12:38:54.589Z,5.60
2023-11-16T12:41:24.550Z,6.00
2023-11-16T12:43:52.261Z,6.30
2023-11-16T12:46:20.794Z,6.00
2023-11-16T12:48:47.948Z,6.00
2023-11-16T12:51:20.981Z,6.10
2023-11-16T12:53:48.576Z,5.30
2023-11-16T12:56:16.816Z,5.60
2023-11-16T12:58:44.515Z,5.00
2023-11-16T13:01:14.855Z,5.10
2023-11-16T13:03:49.687Z,4.10
2023-11-16T13:06:20.544Z,4.80
2023-11-16T13:08:48.516Z,5.90
2023-11-16T13:11:16.757Z,5.00
2023-11-16T13:13:43.985Z,6.20
2023-11-16T13:16:13.955Z,5.80
2023-11-16T13:18:41.024Z,5.00
2023-11-16T13:21:11.547Z,5.50
2023-11-16T13:23:48.631Z,6.50
2023-11-16T13:26:16.168Z,4.50
2023-11-16T13:28:43.303Z,6.00
2023-11-16T13:31:10.188Z,6.60
2023-11-16T13:33:36.969Z,5.50
2023-11-16T13:36:03.999Z,6.40
2023-11-16T13:38:34.105Z,5.60
2023-11-16T13:41:01.409Z,6.60
2023-11-16T13:43:28.138Z,6.50
2023-11-16T13:45:55.239Z,6.30
2023-11-16T13:48:22.151Z,7.40
2023-11-16T13:50:53.211Z,5.90
2023-11-16T13:53:20.528Z,6.20
2023-11-16T13:55:48.397Z,7.40
2023-11-16T13:58:15.425Z,6.70
2023-11-16T14:00:42.836Z,6.10
2023-11-16T14:03:13.704Z,5.40
2023-11-16T14:05:41.889Z,7.00
2023-11-16T14:08:08.716Z,7.30
2023-11-16T14:10:35.655Z,7.00
2023-11-16T14:13:02.630Z,7.60
2023-11-16T14:15:29.663Z,6.80
2023-11-16T14:17:56.519Z,6.90
2023-11-16T14:20:23.479Z,6.90
2023-11-16T14:22:51.436Z,6.80
2023-11-16T14:25:24.071Z,6.80
2023-11-16T14:27:54.394Z,8.40
2023-11-16T14:30:22.118Z,7.30
2023-11-16T14:32:48.922Z,7.00
2023-11-16T14:35:20.207Z,8.00
2023-11-16T14:37:49.251Z,7.20
2023-11-16T14:40:16.202Z,8.10
2023-11-16T14:42:43.256Z,7.50
2023-11-16T14:45:10.487Z,8.30
2023-11-16T14:47:40.292Z,8.20
2023-11-16T14:50:14.540Z,8.30
2023-11-16T14:52:43.406Z,8.70
2023-11-16T14:55:11.192Z,9.60
2023-11-16T14:57:41.456Z,9.10
2023-11-16T15:00:09.993Z,9.60
2023-11-16T15:02:37.668Z,8.20
2023-11-16T15:05:10.087Z,7.40
2023-11-16T15:07:40.244Z,8.60
2023-11-16T15:10:12.358Z,9.90
2023-11-16T15:12:41.160Z,9.00
2023-11-16T15:15:11.526Z,8.30
2023-11-16T15:17:41.630Z,8.90
2023-11-16T15:20:16.407Z,7.90
2023-11-16T15:22:54.294Z,10.40
2023-11-16T15:25:21.589Z,10.40
2023-11-16T15:27:48.935Z,9.10
2023-11-16T15:30:16.821Z,8.40
2023-11-16T15:32:46.795Z,8.70
2023-11-16T15:35:13.828Z,7.50
2023-11-16T15:37:40.752Z,6.20
2023-11-16T15:40:09.661Z,7.00
2023-11-16T15:42:36.760Z,9.50
2023-11-16T15:45:04.105Z,9.40
2023-11-16T15:47:32.710Z,9.20
2023-11-16T15:50:00.767Z,8.20
2023-11-16T15:52:27.442Z,7.30
2023-11-16T15:54:54.633Z,7.20
2023-11-16T15:57:26.699Z,7.90
2023-11-16T15:59:59.844Z,7.30
2023-11-16T16:02:31.506Z,7.50
2023-11-16T16:05:01.123Z,8.60
2023-11-16T16:07:29.028Z,7.90
2023-11-16T16:09:57.293Z,7.20
2023-11-16T16:12:24.937Z,7.70
2023-11-16T16:14:51.709Z,7.20
2023-11-16T16:17:18.506Z,9.00
2023-11-16T16:19:45.272Z,7.90
2023-11-16T16:22:16.174Z,8.10
2023-11-16T16:24:43.950Z,7.80
2023-11-16T16:27:11.834Z,9.60
2023-11-16T16:29:39.244Z,9.20
2023-11-16T16:32:10.016Z,9.90
2023-11-16T16:34:37.717Z,8.50
2023-11-16T16:37:07.842Z,8.20
2023-11-16T16:39:38.681Z,7.50
2023-11-16T16:42:06.415Z,8.10
2023-11-16T16:44:33.240Z,7.80
2023-11-16T16:47:00.052Z,8.50
2023-11-16T16:49:29.760Z,7.40
2023-11-16T16:51:59.368Z,7.50
2023-11-16T16:54:26.475Z,7.40
2023-11-16T16:56:53.570Z,7.50
2023-11-16T16:59:20.677Z,6.50
2023-11-16T17:01:48.181Z,7.60
2023-11-16T17:04:15.077Z,6.70
2023-11-16T17:06:41.924Z,6.70
2023-11-16T17:09:09.599Z,6.60
2023-11-16T17:11:36.306Z,6.60
2023-11-16T17:14:03.495Z,7.40
2023-11-16T17:16:31.194Z,7.50
2023-11-16T17:18:58.161Z,8.40
2023-11-16T17:21:25.533Z,6.80
2023-11-16T17:23:52.720Z,7.90
2023-11-16T17:26:21.062Z,8.40
2023-11-16T17:28:49.814Z,7.10
2023-11-16T17:31:18.783Z,11.90
2023-11-16T17:33:46.453Z,14.40
2023-11-16T17:36:13.433Z,8.70
2023-11-16T17:38:40.198Z,7.80
2023-11-16T17:41:08.231Z,8.10
2023-11-16T17:43:38.967Z,8.30
2023-11-16T17:46:07.571Z,8.50
2023-11-16T17:48:34.948Z,9.30
2023-11-16T17:51:03.840Z,9.40
2023-11-16T17:53:33.365Z,8.00
2023-11-16T17:56:01.529Z,8.90
2023-11-16T17:58:28.388Z,8.60
2023-11-16T18:00:55.236Z,8.30
2023-11-16T18:03:22.163Z,7.80
2023-11-16T18:05:49.108Z,8.40
2023-11-16T18:08:15.976Z,9.30
2023-11-16T18:10:45.528Z,9.80
2023-11-16T18:13:20.699Z,11.30
2023-11-16T18:15:49.490Z,12.60
2023-11-16T18:18:18.016Z,31.70
2023-11-16T18:20:45.229Z,42.80
2023-11-16T18:23:12.127Z,29.90
2023-11-16T18:25:41.577Z,21.40
2023-11-16T18:28:14.181Z,12.20
2023-11-16T18:33:15.476Z,10.70
2023-11-16T18:35:42.814Z,10.70
2023-11-16T18:38:12.726Z,11.00
2023-11-16T18:40:41.261Z,10.50
2023-11-16T18:43:11.733Z,9.90
2023-11-16T18:45:39.266Z,9.50
2023-11-16T18:48:10.695Z,10.90
2023-11-16T18:50:39.090Z,10.30
2023-11-16T18:53:05.845Z,26.90
2023-11-16T18:55:33.064Z,17.10
2023-11-16T18:58:00.351Z,38.00
2023-11-16T19:00:27.647Z,18.40
2023-11-16T19:03:03.697Z,11.20
2023-11-16T19:05:30.522Z,9.60
2023-11-16T19:07:57.625Z,8.70
2023-11-16T19:10:24.446Z,24.80
2023-11-16T19:12:51.325Z,11.80
2023-11-16T19:15:18.059Z,15.80
2023-11-16T19:17:45.830Z,14.00
2023-11-16T19:20:19.257Z,15.00
2023-11-16T19:22:45.997Z,27.60
2023-11-16T19:25:15.950Z,13.70
2023-11-16T19:27:43.599Z,12.90
2023-11-16T19:30:15.473Z,22.90
2023-11-16T19:32:43.627Z,63.50
2023-11-16T19:35:10.386Z,89.10
2023-11-16T19:37:37.150Z,18.40
2023-11-16T19:40:04.430Z,87.10
2023-11-16T19:42:31.152Z,25.10
2023-11-16T19:44:57.966Z,42.20
2023-11-16T19:47:29.951Z,10.90
2023-11-16T19:50:11.284Z,11.50
2023-11-16T19:52:39.667Z,9.60
2023-11-16T19:55:08.233Z,8.90
2023-11-16T19:57:35.529Z,10.20
2023-11-16T20:00:04.786Z,9.10
2023-11-16T20:02:32.321Z,9.00
2023-11-16T20:05:00.673Z,8.40
2023-11-16T20:07:30.219Z,11.30
2023-11-16T20:09:58.196Z,13.60
2023-11-16T20:12:26.331Z,10.30
2023-11-16T20:14:57.214Z,9.80
2023-11-16T20:17:27.730Z,9.90
2023-11-16T20:19:57.010Z,8.90
2023-11-16T20:22:24.328Z,23.80
2023-11-16T20:24:53.939Z,15.80
2023-11-16T20:27:20.896Z,11.20
2023-11-16T20:29:47.690Z,9.40
2023-11-16T20:32:14.744Z,8.40
2023-11-16T20:34:42.011Z,7.90
2023-11-16T20:37:09.030Z,11.00
2023-11-16T20:39:35.840Z,10.50
2023-11-16T20:42:05.376Z,8.20
2023-11-16T20:44:33.664Z,10.40
2023-11-16T20:47:00.704Z,24.30
2023-11-16T20:49:28.187Z,22.70
2023-11-16T20:51:56.395Z,23.10
2023-11-16T20:54:23.566Z,17.60
2023-11-16T20:56:50.455Z,26.20
2023-11-16T20:59:18.791Z,17.10
2023-11-16T21:01:46.200Z,21.00
2023-11-16T21:04:13.238Z,13.60
2023-11-16T21:06:40.202Z,13.60
2023-11-16T21:09:10.991Z,9.80
2023-11-16T21:11:38.414Z,8.10
2023-11-16T21:14:08.278Z,7.90
2023-11-16T21:16:35.337Z,7.90
2023-11-16T21:19:02.186Z,7.00
2023-11-16T21:21:29.092Z,7.20
2023-11-16T21:23:56.001Z,7.50
2023-11-16T21:26:22.801Z,6.70
2023-11-16T21:28:49.694Z,7.20
2023-11-16T21:31:16.544Z,6.90
2023-11-16T21:33:43.421Z,7.00
2023-11-16T21:36:11.442Z,7.10
2023-11-16T21:38:38.575Z,7.00
2023-11-16T21:41:07.495Z,7.80
2023-11-16T21:43:34.620Z,7.00
2023-11-16T21:46:01.727Z,7.40
2023-11-16T21:48:29.459Z,7.30
2023-11-16T21:50:56.279Z,6.90
2023-11-16T21:53:23.792Z,7.00
2023-11-16T21:55:51.842Z,6.40
2023-11-16T21:58:18.725Z,7.00
2023-11-16T22:00:45.586Z,8.80
2023-11-16T22:03:12.458Z,10.20
2023-11-16T22:05:39.241Z,9.00
2023-11-16T22:08:06.417Z,8.30
2023-11-16T22:10:33.197Z,8.60
2023-11-16T22:13:00.055Z,8.50
2023-11-16T22:15:27.659Z,8.50
2023-11-16T22:17:54.554Z,8.30
2023-11-16T22:20:21.399Z,9.10
2023-11-16T22:22:50.080Z,8.60
2023-11-16T22:25:18.179Z,9.00
2023-11-16T22:27:47.421Z,8.00
2023-11-16T22:30:19.418Z,7.90
2023-11-16T22:32:47.050Z,7.80
2023-11-16T22:35:14.953Z,9.00
2023-11-16T22:37:43.295Z,10.90
2023-11-16T22:40:11.139Z,10.00
2023-11-16T22:42:39.382Z,8.90
2023-11-16T22:45:10.089Z,9.40
2023-11-16T22:47:45.190Z,9.10
2023-11-16T22:50:12.666Z,8.80
2023-11-16T22:52:40.099Z,8.90
2023-11-16T22:55:10.291Z,8.70
2023-11-16T22:57:38.687Z,8.60
2023-11-16T23:00:11.153Z,8.40
2023-11-16T23:02:40.156Z,8.50
2023-11-16T23:05:09.008Z,9.10
2023-11-16T23:07:38.150Z,7.40
2023-11-16T23:10:06.035Z,7.80
2023-11-16T23:12:32.944Z,7.60
2023-11-16T23:14:59.756Z,7.50
2023-11-16T23:17:27.784Z,8.00
2023-11-16T23:19:54.796Z,9.10
2023-11-16T23:22:22.376Z,9.00
2023-11-16T23:24:50.821Z,9.20
2023-11-16T23:27:18.543Z,9.10
2023-11-16T23:29:45.307Z,8.70
2023-11-16T23:32:12.874Z,9.80
2023-11-16T23:34:41.797Z,8.40
2023-11-16T23:37:12.021Z,8.50
2023-11-16T23:39:38.739Z,7.00
2023-11-16T23:42:06.020Z,7.10
2023-11-16T23:44:32.809Z,7.00
2023-11-16T23:47:01.335Z,6.20
2023-11-16T23:49:28.379Z,6.30
2023-11-16T23:51:55.190Z,6.20
2023-11-16T23:54:22.115Z,6.60
2023-11-16T23:56:48.989Z,7.00
2023-11-16T23:59:16.296Z,6.40
